createdAt,value
2022-09-05T00:02:03.354Z,3.00
2022-09-05T00:04:33.143Z,2.80
2022-09-05T00:07:32.943Z,3.08
2022-09-05T00:10:10.202Z,3.58
2022-09-05T00:12:42.748Z,2.90
2022-09-05T00:15:48.093Z,3.05
2022-09-05T00:23:15.482Z,2.67
2022-09-05T00:24:28.566Z,2.70
2022-09-05T00:27:56.496Z,2.97
2022-09-05T00:30:57.296Z,3.05
2022-09-05T00:33:47.836Z,3.33
2022-09-05T00:36:41.466Z,3.35
2022-09-05T00:39:18.086Z,2.92
2022-09-05T00:41:49.563Z,3.53
2022-09-05T00:44:20.689Z,3.00
2022-09-05T00:47:02.166Z,3.65
2022-09-05T00:49:46.637Z,3.58
2022-09-05T00:52:33.035Z,3.40
2022-09-05T00:55:25.914Z,3.22
2022-09-05T00:58:05.407Z,3.58
2022-09-05T01:00:32.831Z,3.55
2022-09-05T01:03:25.054Z,3.05
2022-09-05T01:09:15.926Z,3.03
2022-09-05T01:12:02.253Z,2.75
2022-09-05T01:14:51.903Z,3.40
2022-09-05T01:17:48.599Z,2.90
2022-09-05T01:20:52.924Z,2.95
2022-09-05T01:23:40.809Z,3.00
2022-09-05T01:26:38.615Z,3.22
2022-09-05T01:29:19.679Z,3.65
2022-09-05T01:32:12.039Z,3.47
2022-09-05T01:34:48.348Z,3.55
2022-09-05T01:37:37.496Z,3.80
2022-09-05T01:40:17.304Z,3.50
2022-09-05T01:43:01.363Z,3.17
2022-09-05T01:45:51.858Z,3.30
2022-09-05T01:48:58.357Z,3.35
2022-09-05T01:52:00.301Z,3.47
2022-09-05T01:54:39.888Z,3.20
2022-09-05T01:57:29.132Z,3.47
2022-09-05T02:00:21.956Z,3.33
2022-09-05T02:03:01.567Z,3.33
2022-09-05T02:05:52.311Z,3.38
2022-09-05T02:08:39.379Z,3.20
2022-09-05T02:11:14.045Z,3.30
2022-09-05T02:14:08.274Z,3.22
2022-09-05T02:16:47.043Z,3.13
2022-09-05T02:19:25.325Z,3.55
2022-09-05T02:22:10.065Z,3.33
2022-09-05T02:24:48.606Z,3.40
2022-09-05T02:28:05.547Z,3.47
2022-09-05T02:30:37.246Z,3.50
2022-09-05T02:33:39.515Z,3.22
2022-09-05T02:36:29.352Z,3.28
2022-09-05T02:45:06.153Z,3.40
2022-09-05T02:45:07.449Z,3.53
2022-09-05T02:45:26.539Z,3.25
2022-09-05T02:48:16.192Z,3.33
2022-09-05T02:56:18.526Z,3.13
2022-09-05T02:57:25.548Z,3.50
2022-09-05T02:57:36.375Z,3.42
2022-09-05T02:59:49.889Z,3.30
2022-09-05T03:05:06.935Z,3.67
2022-09-05T03:07:52.342Z,3.30
2022-09-05T03:10:49.823Z,3.40
2022-09-05T03:16:56.239Z,3.45
2022-09-05T03:19:54.639Z,3.40
2022-09-05T03:23:01.204Z,3.45
2022-09-05T03:26:09.128Z,3.63
2022-09-05T03:29:25.505Z,3.42
2022-09-05T03:32:08.761Z,3.50
2022-09-05T03:34:54.384Z,3.58
2022-09-05T03:37:46.210Z,3.90
2022-09-05T03:40:36.568Z,4.07
2022-09-05T03:43:41.558Z,3.40
2022-09-05T03:46:46.267Z,3.42
2022-09-05T03:50:35.861Z,3.63
2022-09-05T03:57:07.029Z,4.00
2022-09-05T03:57:22.794Z,3.63
2022-09-05T03:59:01.440Z,3.88
2022-09-05T04:06:09.006Z,3.55
2022-09-05T04:08:10.539Z,3.67
2022-09-05T04:08:29.252Z,4.00
2022-09-05T04:10:51.331Z,3.10
2022-09-05T04:13:36.155Z,3.20
2022-09-05T04:16:14.283Z,3.88
2022-09-05T04:18:47.177Z,4.10
2022-09-05T04:21:20.199Z,4.35
2022-09-05T04:24:03.240Z,3.92
2022-09-05T04:27:04.954Z,4.57
2022-09-05T04:29:32.296Z,4.05
2022-09-05T04:32:30.737Z,3.95
2022-09-05T04:35:19.371Z,4.10
2022-09-05T04:37:47.892Z,4.05
2022-09-05T04:40:34.669Z,3.97
2022-09-05T04:43:36.138Z,4.28
2022-09-05T04:46:32.528Z,3.60
2022-09-05T04:49:20.476Z,3.90
2022-09-05T04:52:31.697Z,3.50
2022-09-05T04:55:10.168Z,3.88
2022-09-05T04:57:56.773Z,3.15
2022-09-05T05:05:22.289Z,3.65
2022-09-05T05:06:15.943Z,3.28
2022-09-05T05:06:45.438Z,4.05
2022-09-05T05:09:25.025Z,4.82
2022-09-05T05:17:53.995Z,4.97
2022-09-05T05:18:14.531Z,4.05
2022-09-05T05:18:42.413Z,4.22
2022-09-05T05:21:00.386Z,3.97
2022-09-05T05:23:37.721Z,3.47
2022-09-05T05:26:11.119Z,3.60
2022-09-05T05:28:52.726Z,3.70
2022-09-05T05:31:32.603Z,3.70
2022-09-05T05:34:03.758Z,3.90
2022-09-05T05:36:45.972Z,4.30
2022-09-05T05:39:21.540Z,4.00
2022-09-05T05:41:56.767Z,4.43
2022-09-05T05:44:29.235Z,4.75
2022-09-05T05:47:09.405Z,4.72
2022-09-05T05:49:58.113Z,4.57
2022-09-05T05:52:37.534Z,5.47
2022-09-05T05:55:50.586Z,5.03
2022-09-05T05:58:32.688Z,5.47
2022-09-05T06:01:38.450Z,5.80
2022-09-05T06:04:24.787Z,4.93
2022-09-05T06:07:26.187Z,4.93
2022-09-05T06:14:52.791Z,5.05
2022-09-05T06:15:02.809Z,4.22
2022-09-05T06:17:11.325Z,4.80
2022-09-05T06:21:41.215Z,4.32
2022-09-05T06:23:38.681Z,4.28
2022-09-05T06:26:45.867Z,3.80
2022-09-05T06:29:38.663Z,4.53
2022-09-05T06:32:37.458Z,4.63
2022-09-05T06:35:11.079Z,4.88
2022-09-05T06:37:51.183Z,5.00
2022-09-05T06:40:34.527Z,5.45
2022-09-05T06:43:13.355Z,4.85
2022-09-05T06:46:08.354Z,4.95
2022-09-05T06:49:30.323Z,5.18
2022-09-05T06:52:27.919Z,5.13
2022-09-05T06:54:59.950Z,4.68
2022-09-05T06:57:52.512Z,4.88
2022-09-05T07:00:23.672Z,3.83
2022-09-05T07:03:07.408Z,4.10
2022-09-05T07:05:55.857Z,4.15
2022-09-05T07:08:36.297Z,3.72
2022-09-05T07:11:16.902Z,3.80
2022-09-05T07:14:04.398Z,3.47
2022-09-05T07:16:43.009Z,3.58
2022-09-05T07:19:28.656Z,3.63
2022-09-05T07:22:41.742Z,3.58
2022-09-05T07:25:08.749Z,3.45
2022-09-05T07:28:29.222Z,4.05
2022-09-05T07:30:40.824Z,3.00
2022-09-05T07:33:09.280Z,2.70
2022-09-05T07:35:41.575Z,3.00
2022-09-05T07:38:26.710Z,2.92
2022-09-05T07:41:32.912Z,2.90
2022-09-05T07:44:10.961Z,3.00
2022-09-05T07:46:40.681Z,2.97
2022-09-05T07:49:19.848Z,2.63
2022-09-05T07:56:47.671Z,3.60
2022-09-05T07:57:06.276Z,3.42
2022-09-05T07:57:52.111Z,3.80
2022-09-05T08:00:29.151Z,3.60
2022-09-05T08:03:09.123Z,3.30
2022-09-05T08:05:44.672Z,3.30
2022-09-05T08:08:17.414Z,3.83
2022-09-05T08:11:24.253Z,4.10
2022-09-05T08:14:40.774Z,4.18
2022-09-05T08:19:55.386Z,4.40
2022-09-05T08:22:52.153Z,3.88
2022-09-05T08:25:31.469Z,3.80
2022-09-05T08:28:23.726Z,4.30
2022-09-05T08:31:20.442Z,4.82
2022-09-05T08:33:53.103Z,3.83
2022-09-05T08:36:31.792Z,3.42
2022-09-05T08:39:01.150Z,3.28
2022-09-05T08:42:08.842Z,3.15
2022-09-05T08:46:46.105Z,3.03
2022-09-05T08:48:05.326Z,3.60
2022-09-05T08:50:57.620Z,3.60
2022-09-05T08:53:46.162Z,3.10
2022-09-05T08:56:20.675Z,3.45
2022-09-05T08:59:27.520Z,3.38
2022-09-05T09:02:47.409Z,3.65
2022-09-05T09:06:12.230Z,3.83
2022-09-05T09:08:52.525Z,3.47
2022-09-05T09:11:48.839Z,3.50
2022-09-05T09:14:37.273Z,3.53
2022-09-05T09:17:16.791Z,3.65
2022-09-05T09:19:50.457Z,3.80
2022-09-05T09:22:22.444Z,3.13
2022-09-05T09:25:33.734Z,3.63
2022-09-05T09:28:49.405Z,3.50
2022-09-05T09:31:40.176Z,3.05
2022-09-05T09:34:25.877Z,3.40
2022-09-05T09:36:59.414Z,3.35
2022-09-05T09:39:49.776Z,3.53
2022-09-05T09:42:38.547Z,3.40
2022-09-05T09:45:32.032Z,3.60
2022-09-05T09:48:17.771Z,3.25
2022-09-05T09:51:00.596Z,2.67
2022-09-05T09:53:40.816Z,3.22
2022-09-05T09:56:20.268Z,3.10
2022-09-05T09:58:56.598Z,2.85
2022-09-05T10:01:35.975Z,2.97
2022-09-05T10:10:38.354Z,2.63
2022-09-05T10:10:51.342Z,2.85
2022-09-05T10:11:51.977Z,2.45
2022-09-05T10:13:59.831Z,3.10
2022-09-05T10:19:11.103Z,2.75
2022-09-05T10:22:34.222Z,2.67
2022-09-05T10:24:58.814Z,1.98
2022-09-05T10:28:05.313Z,2.00
2022-09-05T10:32:19.305Z,1.92
2022-09-05T10:35:15.330Z,2.70
2022-09-05T10:36:27.154Z,3.17
2022-09-05T10:39:13.577Z,2.67
2022-09-05T10:41:53.668Z,2.85
2022-09-05T10:44:27.242Z,2.08
2022-09-05T10:47:26.691Z,2.30
2022-09-05T10:50:25.105Z,2.50
2022-09-05T10:53:39.107Z,1.98
2022-09-05T10:56:44.726Z,2.22
2022-09-05T11:02:16.132Z,2.50
2022-09-05T11:02:34.642Z,2.50
2022-09-05T11:05:30.836Z,2.28
2022-09-05T11:08:07.665Z,2.10
2022-09-05T11:10:37.325Z,2.15
2022-09-05T11:13:25.764Z,2.63
2022-09-05T11:16:06.068Z,3.45
2022-09-05T11:18:56.086Z,2.78
2022-09-05T11:21:50.379Z,2.58
2022-09-05T11:24:43.940Z,2.80
2022-09-05T11:27:26.495Z,2.38
2022-09-05T11:30:07.030Z,2.45
2022-09-05T11:36:33.672Z,2.77
2022-09-05T11:39:48.129Z,2.65
2022-09-05T11:40:08.820Z,2.40
2022-09-05T11:41:53.422Z,2.70
2022-09-05T11:44:46.150Z,2.65
2022-09-05T11:47:39.789Z,2.22
2022-09-05T11:50:29.162Z,2.65
2022-09-05T11:53:11.507Z,2.90
2022-09-05T11:56:11.303Z,2.88
2022-09-05T11:59:04.815Z,3.38
2022-09-05T12:02:23.878Z,2.30
2022-09-05T12:05:48.589Z,2.45
2022-09-05T12:08:31.544Z,2.35
2022-09-05T12:11:23.332Z,2.73
2022-09-05T12:14:30.856Z,2.35
2022-09-05T12:17:20.601Z,2.35
2022-09-05T12:20:26.286Z,2.20
2022-09-05T12:23:03.080Z,2.53
2022-09-05T12:27:38.322Z,2.25
2022-09-05T12:29:26.784Z,2.58
2022-09-05T12:33:09.781Z,2.80
2022-09-05T12:36:06.950Z,2.63
2022-09-05T12:40:57.037Z,2.80
2022-09-05T12:41:36.989Z,2.70
2022-09-05T12:44:37.097Z,2.03
2022-09-05T12:47:16.590Z,2.72
2022-09-05T12:50:14.264Z,2.63
2022-09-05T12:52:51.476Z,3.13
2022-09-05T12:55:33.798Z,2.72
2022-09-05T13:01:19.043Z,2.80
2022-09-05T13:03:07.541Z,2.42
2022-09-05T13:04:20.097Z,2.50
2022-09-05T13:06:58.662Z,2.80
2022-09-05T13:09:53.975Z,3.10
2022-09-05T13:14:54.434Z,2.80
2022-09-05T13:15:36.330Z,2.60
2022-09-05T13:18:10.325Z,2.53
2022-09-05T13:20:50.242Z,2.90
2022-09-05T13:23:23.734Z,2.55
2022-09-05T13:25:58.528Z,2.22
2022-09-05T13:28:43.193Z,2.50
2022-09-05T13:35:08.291Z,2.30
2022-09-05T13:38:08.369Z,2.63
2022-09-05T13:38:28.908Z,2.35
2022-09-05T13:40:22.980Z,2.25
2022-09-05T13:43:11.109Z,2.22
2022-09-05T13:46:07.925Z,2.33
2022-09-05T13:51:55.896Z,2.67
2022-09-05T13:54:41.497Z,2.33
2022-09-05T13:57:34.903Z,2.53
2022-09-05T14:00:27.773Z,2.42
2022-09-05T14:03:38.830Z,2.13
2022-09-05T14:06:46.217Z,2.58
2022-09-05T14:09:35.696Z,2.78
2022-09-05T14:12:12.255Z,2.55
2022-09-05T14:18:21.645Z,2.83
2022-09-05T14:21:19.298Z,2.20
2022-09-05T14:24:04.714Z,2.70
2022-09-05T14:26:45.796Z,2.35
2022-09-05T14:29:25.207Z,2.30
2022-09-05T14:37:53.549Z,2.30
2022-09-05T14:37:54.762Z,2.47
2022-09-05T14:38:50.863Z,2.65
2022-09-05T14:42:07.696Z,2.28
2022-09-05T14:45:00.844Z,2.45
2022-09-05T14:47:39.409Z,2.33
2022-09-05T14:50:28.118Z,2.35
2022-09-05T14:57:02.092Z,2.30
2022-09-05T15:02:53.351Z,2.60
2022-09-05T15:02:54.383Z,2.20
2022-09-05T15:05:13.431Z,3.08
2022-09-05T15:07:44.396Z,2.95
2022-09-05T15:12:14.753Z,2.33
2022-09-05T15:13:11.491Z,2.20
2022-09-05T15:15:44.345Z,2.40
2022-09-05T15:18:22.396Z,2.30
2022-09-05T15:20:52.740Z,2.20
2022-09-05T15:23:26.219Z,2.10
2022-09-05T15:26:05.802Z,2.30
2022-09-05T15:28:36.572Z,2.28
2022-09-05T15:31:21.358Z,2.00
2022-09-05T15:33:52.117Z,2.22
2022-09-05T15:36:35.905Z,2.10
2022-09-05T15:39:26.922Z,2.58
2022-09-05T15:42:41.620Z,2.27
2022-09-05T15:45:18.122Z,2.13
2022-09-05T15:48:01.946Z,2.20
2022-09-05T15:50:40.206Z,1.88
2022-09-05T15:53:12.483Z,2.00
2022-09-05T15:55:47.352Z,2.08
2022-09-05T15:58:19.412Z,2.50
2022-09-05T16:00:51.759Z,4.28
2022-09-05T16:06:52.465Z,2.10
2022-09-05T16:10:29.028Z,5.32
2022-09-05T16:10:41.286Z,2.03
2022-09-05T16:12:13.768Z,2.50
2022-09-05T16:16:22.833Z,2.28
2022-09-05T16:23:18.250Z,2.20
2022-09-05T16:23:26.195Z,2.20
2022-09-05T16:23:40.746Z,2.10
2022-09-05T16:26:25.440Z,2.80
2022-09-05T16:29:10.425Z,2.92
2022-09-05T16:32:12.157Z,2.50
2022-09-05T16:35:06.114Z,1.90
2022-09-05T16:38:07.605Z,2.20
2022-09-05T16:40:41.291Z,2.40
2022-09-05T16:43:26.375Z,2.25
2022-09-05T16:45:57.840Z,2.30
2022-09-05T16:48:39.626Z,2.40
2022-09-05T16:51:34.759Z,2.33
2022-09-05T16:54:28.504Z,2.70
2022-09-05T16:57:10.865Z,2.10
2022-09-05T16:59:42.627Z,10.32
2022-09-05T17:02:22.270Z,3.38
2022-09-05T17:05:25.421Z,2.22
2022-09-05T17:08:20.255Z,2.20
2022-09-05T17:10:57.735Z,2.17
2022-09-05T17:13:52.422Z,2.92
2022-09-05T17:16:27.553Z,2.88
2022-09-05T17:18:59.645Z,4.70
2022-09-05T17:22:39.913Z,3.45
2022-09-05T17:29:21.209Z,2.17
2022-09-05T17:29:32.754Z,2.20
2022-09-05T17:32:56.636Z,2.15
2022-09-05T17:35:42.767Z,1.85
2022-09-05T17:38:38.557Z,1.80
2022-09-05T17:41:43.316Z,2.40
2022-09-05T17:44:19.359Z,2.30
2022-09-05T17:47:14.730Z,2.30
2022-09-05T17:49:47.738Z,2.22
2022-09-05T17:52:22.834Z,2.08
2022-09-05T17:54:52.556Z,1.90
2022-09-05T17:57:28.953Z,2.17
2022-09-05T18:00:04.113Z,2.08
2022-09-05T18:02:56.219Z,2.05
2022-09-05T18:06:01.112Z,1.92
2022-09-05T18:08:50.079Z,2.20
2022-09-05T18:11:25.315Z,2.10
2022-09-05T18:14:24.563Z,2.03
2022-09-05T18:17:36.134Z,2.30
2022-09-05T18:19:46.438Z,2.78
2022-09-05T18:22:46.003Z,2.30
2022-09-05T18:25:30.720Z,2.15
2022-09-05T18:28:22.600Z,2.42
2022-09-05T18:30:50.438Z,2.55
2022-09-05T18:33:53.707Z,2.78
2022-09-05T18:36:25.805Z,2.97
2022-09-05T18:39:26.169Z,2.88
2022-09-05T18:42:26.258Z,3.33
2022-09-05T18:45:16.251Z,3.30
2022-09-05T18:50:32.393Z,3.97
2022-09-05T18:53:09.976Z,3.70
2022-09-05T18:56:12.808Z,3.10
2022-09-05T18:58:52.956Z,3.47
2022-09-05T19:01:28.832Z,3.08
2022-09-05T19:04:01.977Z,3.40
2022-09-05T19:06:36.437Z,3.45
2022-09-05T19:09:10.125Z,3.38
2022-09-05T19:11:49.550Z,3.45
2022-09-05T19:14:49.107Z,3.20
2022-09-05T19:17:30.453Z,3.63
2022-09-05T19:20:33.134Z,3.42
2022-09-05T19:23:13.538Z,3.30
2022-09-05T19:25:44.383Z,3.30
2022-09-05T19:36:44.700Z,3.28
2022-09-05T19:36:54.642Z,3.42
2022-09-05T19:37:07.769Z,3.55
2022-09-05T19:37:38.688Z,3.25
2022-09-05T19:47:05.877Z,3.17
2022-09-05T19:47:38.544Z,3.20
2022-09-05T19:47:51.101Z,3.30
2022-09-05T19:48:35.102Z,3.05
2022-09-05T19:51:17.319Z,3.50
2022-09-05T19:53:55.222Z,3.58
2022-09-05T19:56:41.242Z,3.28
2022-09-05T19:59:39.791Z,3.20
2022-09-05T20:02:15.473Z,3.45
2022-09-05T20:04:53.556Z,3.10
2022-09-05T20:07:23.595Z,3.03
2022-09-05T20:09:52.760Z,3.30
2022-09-05T20:12:24.494Z,3.13
2022-09-05T20:17:22.608Z,3.00
2022-09-05T20:20:05.314Z,3.40
2022-09-05T20:22:49.709Z,3.65
2022-09-05T20:25:43.439Z,3.55
2022-09-05T20:28:15.694Z,3.58
2022-09-05T20:30:50.702Z,3.40
2022-09-05T20:33:31.891Z,3.50
2022-09-05T20:43:12.030Z,3.15
2022-09-05T20:43:22.292Z,3.50
2022-09-05T20:43:22.633Z,3.22
2022-09-05T20:44:48.255Z,3.28
2022-09-05T20:54:06.489Z,3.28
2022-09-05T20:54:16.435Z,2.90
2022-09-05T20:54:18.863Z,2.83
2022-09-05T20:56:05.000Z,2.78
2022-09-05T20:58:35.247Z,3.58
2022-09-05T21:01:19.564Z,2.60
2022-09-05T21:03:54.380Z,3.00
2022-09-05T21:06:36.536Z,2.88
2022-09-05T21:11:42.675Z,3.20
2022-09-05T21:14:14.502Z,2.70
2022-09-05T21:16:45.529Z,2.80
2022-09-05T21:19:24.615Z,2.77
2022-09-05T21:22:39.373Z,2.60
2022-09-05T21:25:22.023Z,2.67
2022-09-05T21:28:08.791Z,2.50
2022-09-05T21:30:39.170Z,2.63
2022-09-05T21:33:09.919Z,2.55
2022-09-05T21:35:48.838Z,2.45
2022-09-05T21:38:32.351Z,3.05
2022-09-05T21:41:02.429Z,2.28
2022-09-05T21:47:35.228Z,3.08
2022-09-05T21:47:49.163Z,2.90
2022-09-05T21:49:09.069Z,2.60
2022-09-05T21:51:39.552Z,2.90
2022-09-05T21:59:13.765Z,2.97
2022-09-05T21:59:21.905Z,3.03
2022-09-05T22:00:10.736Z,3.00
2022-09-05T22:02:49.244Z,3.10
2022-09-05T22:07:44.644Z,3.10
2022-09-05T22:10:12.104Z,2.97
2022-09-05T22:12:40.501Z,3.33
2022-09-05T22:15:27.694Z,3.22
2022-09-05T22:18:16.766Z,3.45
2022-09-05T22:20:51.208Z,3.28
2022-09-05T22:23:37.632Z,3.20
2022-09-05T22:26:05.535Z,3.15
2022-09-05T22:28:36.013Z,3.20
2022-09-05T22:31:07.459Z,2.90
2022-09-05T22:33:36.117Z,3.15
2022-09-05T22:36:04.502Z,3.67
2022-09-05T22:38:33.319Z,3.22
2022-09-05T22:41:00.915Z,3.15
2022-09-05T22:43:33.381Z,3.50
2022-09-05T22:46:00.816Z,3.55
2022-09-05T22:48:28.399Z,3.35
2022-09-05T22:50:56.683Z,3.80
2022-09-05T22:53:24.018Z,4.13
2022-09-05T22:55:57.777Z,6.10
2022-09-05T22:58:25.531Z,5.30
2022-09-05T23:00:53.961Z,6.18
2022-09-05T23:03:21.483Z,7.05
2022-09-05T23:05:48.866Z,8.27
2022-09-05T23:08:16.276Z,7.80
2022-09-05T23:10:43.779Z,6.85
2022-09-05T23:13:11.300Z,7.35
2022-09-05T23:15:38.829Z,6.50
2022-09-05T23:18:09.629Z,7.43
2022-09-05T23:20:37.040Z,6.85
2022-09-05T23:23:09.348Z,6.25
2022-09-05T23:25:36.796Z,5.25
2022-09-05T23:28:09.121Z,5.57
2022-09-05T23:30:38.439Z,4.93
2022-09-05T23:33:07.820Z,5.43
2022-09-05T23:35:36.559Z,5.15
2022-09-05T23:38:09.113Z,5.20
2022-09-05T23:40:36.539Z,5.45
2022-09-05T23:43:04.650Z,4.90
2022-09-05T23:45:35.179Z,4.63
2022-09-05T23:48:02.976Z,4.45
2022-09-05T23:50:30.283Z,5.13
2022-09-05T23:53:04.301Z,4.35
2022-09-05T23:55:32.830Z,4.25
2022-09-05T23:58:00.472Z,4.53
